Tropical Cyclones
[Index]
Main Index Home Page Stock Weather Photos Extreme Storms Discussion Storm News and Storm Chasing Reports Tropical Cyclones / Hurricanes / Typhoons Weather Data and Links Wild Fires / Bushfires Weather Observation Techniques Weather Picture Catalogue Tornado Pictures and Reports Stock Video Footage and DVDs for sale
Season 2009-2010 Tropical Cyclone OLGA Track Map
Season 2009-2010 Summaries (Operational Data): [AU] [SIO] [SPAC] [SH]
<<- Previous TC | 2009-2010 Season | Next TC ->>

click for intensity scale information  Lat/long Grid: Show Hide

 Date Labels: Show Hide

Operational Tropical Cyclone Data : JTWC Advisories | BoM Warnings

Name: OLGA
Number: 1009

22 Jan 2010 18:00 UTC to 30 Jan 2010 00:00 UTC

    date/time    lat    long     hPa   cat  kts
2010-01-22 18   16.4   150.8     993    1    40          
2010-01-23 00   16.3   150.3     993    1    40          
2010-01-23 06   16.5   149.2     990    1    45          
2010-01-23 12   16.2   148.0     983    2    55          
2010-01-23 18   15.7   147.0     983    2    55          
2010-01-24 00   15.7   146.2     980    2    55          
2010-01-24 06   16.4   145.6     997         30          
2010-01-24 12   16.8   146.2     997         30          
2010-01-24 18   17.4   145.6     996         30          
2010-01-25 00   18.4   144.0    1000         25          
2010-01-25 06   18.2   143.0    1001         20          
2010-01-25 12   18.3   139.7    1001         20          
2010-01-25 18   18.2   139.1     999         20          
2010-01-26 00   18.0   140.0    1001         20          
2010-01-26 06   17.5   138.8     997         25          
2010-01-26 12   16.8   137.7     998         25          
2010-01-26 18   16.1   137.4     997         25          
2010-01-27 00   16.1   137.4     998         25          
2010-01-27 06   16.3   137.0     994         30          
2010-01-27 12   16.1   136.2     993         30          
2010-01-27 18   15.9   136.3     992         30          
2010-01-28 00   15.9   136.2     993         25          
2010-01-28 06   16.2   135.7     994         30          
2010-01-28 12   16.1   135.8     993         30          
2010-01-28 18   16.0   135.8     993         30          
2010-01-29 00   15.9   136.5     990         25          
2010-01-29 06   16.0   137.4     990         30          
2010-01-29 12   16.2   138.9     987    1    35          
2010-01-29 18   17.6   140.3     987    1    35          
2010-01-30 00   18.4   141.3     987         30          
Winds are 10-min average.

Tropical cyclone tracks developed by Michael Bath using operational warnings and advisories and Google Maps.


[Australian Severe Weather index] [Copyright Notice] [Email Contacts] [Search This Site] [Privacy Policy]
Document: tropical_cyclone_olga.htm Updated: 28 May 2013